createdAt,value
2023-04-29T00:00:33.586Z,44.94
2023-04-29T00:03:01.862Z,44.98
2023-04-29T00:05:29.367Z,45.22
2023-04-29T00:07:57.423Z,45.45
2023-04-29T00:10:26.449Z,45.38
2023-04-29T00:12:54.008Z,45.36
2023-04-29T00:15:22.016Z,45.27
2023-04-29T00:17:50.337Z,45.14
2023-04-29T00:20:17.685Z,44.94
2023-04-29T00:22:44.685Z,44.86
2023-04-29T00:25:11.810Z,44.81
2023-04-29T00:27:39.153Z,44.64
2023-04-29T00:30:08.130Z,44.60
2023-04-29T00:32:40.586Z,44.51
2023-04-29T00:35:08.020Z,44.36
2023-04-29T00:37:35.077Z,44.42
2023-04-29T00:40:03.053Z,44.29
2023-04-29T00:42:31.803Z,44.26
2023-04-29T00:45:00.013Z,44.23
2023-04-29T00:47:26.995Z,44.31
2023-04-29T00:49:54.099Z,44.12
2023-04-29T00:52:21.157Z,44.15
2023-04-29T00:54:48.400Z,43.98
2023-04-29T00:57:16.268Z,43.90
2023-04-29T00:59:45.250Z,43.86
2023-04-29T01:02:13.173Z,43.87
2023-04-29T01:04:40.405Z,43.89
2023-04-29T01:07:30.182Z,43.87
2023-04-29T01:10:07.580Z,44.03
2023-04-29T01:12:41.298Z,44.03
2023-04-29T01:15:10.622Z,43.98
2023-04-29T01:17:44.648Z,44.11
2023-04-29T01:20:16.032Z,44.19
2023-04-29T01:22:44.550Z,44.23
2023-04-29T01:25:12.570Z,44.19
2023-04-29T01:28:12.808Z,44.30
2023-04-29T01:30:50.194Z,44.42
2023-04-29T01:33:42.318Z,44.41
2023-04-29T01:36:11.531Z,44.46
2023-04-29T01:38:42.670Z,44.55
2023-04-29T01:41:27.106Z,44.55
2023-04-29T01:43:59.232Z,44.54
2023-04-29T01:46:26.772Z,44.56
2023-04-29T01:48:56.381Z,44.50
2023-04-29T01:51:23.687Z,44.53
2023-04-29T01:53:51.152Z,44.53
2023-04-29T01:56:21.568Z,44.50
2023-04-29T01:59:01.530Z,44.53
2023-04-29T02:01:33.389Z,44.44
2023-04-29T02:04:02.269Z,44.48
2023-04-29T02:06:31.812Z,44.41
2023-04-29T02:09:00.341Z,44.33
2023-04-29T02:11:27.448Z,44.45
2023-04-29T02:13:56.814Z,44.35
2023-04-29T02:16:24.263Z,44.17
2023-04-29T02:18:57.722Z,44.23
2023-04-29T02:21:26.629Z,44.17
2023-04-29T02:23:56.645Z,44.21
2023-04-29T02:26:24.201Z,44.04
2023-04-29T02:28:52.526Z,43.83
2023-04-29T02:31:24.426Z,43.73
2023-04-29T02:33:51.754Z,43.75
2023-04-29T02:36:19.435Z,43.59
2023-04-29T02:38:50.173Z,43.54
2023-04-29T02:41:18.870Z,43.62
2023-04-29T02:43:51.387Z,43.50
2023-04-29T02:46:18.856Z,43.46
2023-04-29T02:48:45.999Z,43.45
2023-04-29T02:51:14.244Z,43.50
2023-04-29T02:53:41.284Z,43.63
2023-04-29T02:56:08.636Z,43.58
2023-04-29T02:58:38.698Z,43.65
2023-04-29T03:01:07.907Z,43.71
2023-04-29T03:03:35.988Z,43.83
2023-04-29T03:06:03.373Z,43.74
2023-04-29T03:08:30.381Z,43.78
2023-04-29T03:10:58.761Z,43.80
2023-04-29T03:13:25.926Z,43.72
2023-04-29T03:15:53.115Z,43.80
2023-04-29T03:18:20.190Z,43.87
2023-04-29T03:20:48.104Z,43.68
2023-04-29T03:23:15.414Z,43.77
2023-04-29T03:25:44.531Z,43.67
2023-04-29T03:28:11.978Z,43.51
2023-04-29T03:30:39.237Z,43.46
2023-04-29T03:33:08.067Z,43.43
2023-04-29T03:35:35.261Z,43.38
2023-04-29T03:38:22.532Z,43.31
2023-04-29T03:40:49.652Z,43.08
2023-04-29T03:43:17.243Z,42.85
2023-04-29T03:45:47.636Z,42.77
2023-04-29T03:48:17.241Z,42.56
2023-04-29T03:50:46.790Z,42.38
2023-04-29T03:53:15.285Z,42.26
2023-04-29T03:55:43.170Z,42.17
2023-04-29T03:58:10.619Z,41.92
2023-04-29T04:00:38.562Z,41.78
2023-04-29T04:03:08.565Z,41.41
2023-04-29T04:05:35.719Z,41.35
2023-04-29T04:08:07.589Z,41.07
2023-04-29T04:10:36.395Z,40.82
2023-04-29T04:13:07.469Z,40.60
2023-04-29T04:15:34.443Z,40.38
2023-04-29T04:18:01.797Z,40.24
2023-04-29T04:20:29.118Z,39.81
2023-04-29T04:22:56.835Z,39.65
2023-04-29T04:25:26.120Z,39.43
2023-04-29T04:27:54.908Z,39.26
2023-04-29T04:30:30.833Z,39.13
2023-04-29T04:32:57.971Z,39.00
2023-04-29T04:35:25.309Z,38.75
2023-04-29T04:37:52.456Z,38.69
2023-04-29T04:40:21.219Z,38.32
2023-04-29T04:43:12.154Z,38.20
2023-04-29T04:45:40.631Z,37.92
2023-04-29T04:48:07.932Z,37.79
2023-04-29T04:50:37.631Z,37.32
2023-04-29T04:53:05.406Z,36.92
2023-04-29T04:55:43.212Z,36.80
2023-04-29T04:58:10.550Z,36.65
2023-04-29T05:00:38.496Z,36.38
2023-04-29T05:03:06.999Z,36.19
2023-04-29T05:05:37.359Z,36.01
2023-04-29T05:08:04.537Z,35.67
2023-04-29T05:10:37.013Z,35.35
2023-04-29T05:13:05.768Z,35.23
2023-04-29T05:15:34.894Z,34.82
2023-04-29T05:18:06.062Z,34.49
2023-04-29T05:20:34.268Z,34.13
2023-04-29T05:23:02.497Z,33.92
2023-04-29T05:25:32.315Z,33.61
2023-04-29T05:28:00.394Z,33.54
2023-04-29T05:30:29.394Z,33.10
2023-04-29T05:32:58.220Z,32.30
2023-04-29T05:35:26.040Z,31.42
2023-04-29T05:37:56.098Z,30.85
2023-04-29T05:40:43.485Z,30.39
2023-04-29T05:43:45.831Z,29.65
2023-04-29T05:46:14.409Z,29.11
2023-04-29T05:48:43.060Z,29.02
2023-04-29T05:51:11.095Z,28.79
2023-04-29T05:53:40.111Z,28.74
2023-04-29T05:56:08.008Z,28.38
2023-04-29T05:58:36.939Z,28.12
2023-04-29T06:01:05.918Z,27.93
2023-04-29T06:03:34.033Z,27.69
2023-04-29T06:06:20.002Z,27.29
2023-04-29T06:09:13.271Z,27.17
2023-04-29T06:11:45.628Z,27.02
2023-04-29T06:14:15.402Z,26.88
2023-04-29T06:16:44.536Z,26.82
2023-04-29T06:19:12.127Z,26.79
2023-04-29T06:21:40.580Z,26.56
2023-04-29T06:24:08.368Z,26.12
2023-04-29T06:26:37.248Z,25.92
2023-04-29T06:29:05.442Z,25.64
2023-04-29T06:31:33.397Z,25.68
2023-04-29T06:34:03.924Z,25.62
2023-04-29T06:36:32.001Z,25.30
2023-04-29T06:39:21.856Z,24.85
2023-04-29T06:42:10.867Z,24.67
2023-04-29T06:45:00.883Z,24.62
2023-04-29T06:47:46.669Z,24.26
2023-04-29T06:50:24.315Z,24.12
2023-04-29T06:52:51.282Z,23.84
2023-04-29T06:55:18.251Z,24.21
2023-04-29T06:57:45.477Z,23.97
2023-04-29T07:00:20.589Z,23.80
2023-04-29T07:02:48.010Z,23.67
2023-04-29T07:05:16.809Z,23.53
2023-04-29T07:07:44.201Z,22.94
2023-04-29T07:10:11.335Z,22.74
2023-04-29T07:12:38.481Z,22.58
2023-04-29T07:15:06.494Z,22.38
2023-04-29T07:17:33.663Z,22.23
2023-04-29T07:20:02.240Z,21.91
2023-04-29T07:22:29.859Z,21.58
2023-04-29T07:24:57.287Z,21.76
2023-04-29T07:27:27.512Z,21.53
2023-04-29T07:29:55.001Z,21.69
2023-04-29T07:32:23.732Z,21.83
2023-04-29T07:34:53.407Z,21.65
2023-04-29T07:37:21.301Z,21.25
2023-04-29T07:39:48.501Z,20.95
2023-04-29T07:42:15.528Z,21.11
2023-04-29T07:44:44.909Z,21.06
2023-04-29T07:47:12.098Z,21.12
2023-04-29T07:49:39.052Z,21.25
2023-04-29T07:52:09.432Z,21.14
2023-04-29T07:54:36.611Z,20.86
2023-04-29T07:57:04.599Z,21.29
2023-04-29T07:59:32.227Z,21.50
2023-04-29T08:02:01.069Z,21.30
2023-04-29T08:04:28.610Z,20.85
2023-04-29T08:07:01.863Z,20.96
2023-04-29T08:09:29.157Z,20.90
2023-04-29T08:11:56.429Z,20.71
2023-04-29T08:14:23.436Z,20.48
2023-04-29T08:16:50.352Z,20.60
2023-04-29T08:19:20.960Z,20.79
2023-04-29T08:21:48.714Z,20.97
2023-04-29T08:24:15.727Z,21.00
2023-04-29T08:26:42.645Z,20.58
2023-04-29T08:29:09.650Z,20.72
2023-04-29T08:31:37.287Z,20.33
2023-04-29T08:34:04.324Z,20.33
2023-04-29T08:36:32.191Z,20.09
2023-04-29T08:38:59.237Z,20.03
2023-04-29T08:41:27.749Z,20.35
2023-04-29T08:43:54.862Z,20.45
2023-04-29T08:46:23.515Z,20.33
2023-04-29T08:48:50.808Z,20.35
2023-04-29T08:51:18.173Z,20.52
2023-04-29T08:53:48.272Z,20.18
2023-04-29T08:56:17.475Z,20.07
2023-04-29T08:58:44.734Z,19.70
2023-04-29T09:01:11.763Z,19.39
2023-04-29T09:03:42.617Z,19.45
2023-04-29T09:06:10.499Z,19.64
2023-04-29T09:08:39.142Z,19.93
2023-04-29T09:11:09.945Z,19.78
2023-04-29T09:13:36.984Z,19.61
2023-04-29T09:16:05.513Z,19.35
2023-04-29T09:18:51.244Z,19.17
2023-04-29T09:21:22.192Z,19.30
2023-04-29T09:23:59.937Z,19.38
2023-04-29T09:26:29.400Z,19.51
2023-04-29T09:29:06.321Z,19.66
2023-04-29T09:31:34.625Z,19.59
2023-04-29T09:34:01.693Z,19.47
2023-04-29T09:36:41.818Z,19.65
2023-04-29T09:39:18.981Z,19.35
2023-04-29T09:41:52.088Z,19.10
2023-04-29T09:44:23.249Z,19.19
2023-04-29T09:47:07.587Z,19.09
2023-04-29T09:49:37.063Z,19.21
2023-04-29T09:52:08.371Z,18.94
2023-04-29T09:54:38.084Z,18.52
2023-04-29T09:57:06.122Z,18.68
2023-04-29T09:59:37.801Z,18.78
2023-04-29T10:02:10.342Z,18.86
2023-04-29T10:04:40.171Z,18.68
2023-04-29T10:07:09.325Z,18.80
2023-04-29T10:09:37.131Z,18.88
2023-04-29T10:12:04.444Z,18.42
2023-04-29T10:14:31.496Z,18.38
2023-04-29T10:17:16.985Z,18.58
2023-04-29T10:19:53.447Z,17.85
2023-04-29T10:22:57.555Z,18.02
2023-04-29T10:25:27.790Z,18.35
2023-04-29T10:27:55.025Z,18.61
2023-04-29T10:30:23.961Z,18.39
2023-04-29T10:32:52.495Z,18.09
2023-04-29T10:35:22.331Z,18.16
2023-04-29T10:37:50.343Z,18.33
2023-04-29T10:40:36.807Z,18.17
2023-04-29T10:43:04.198Z,17.91
2023-04-29T10:45:32.571Z,17.59
2023-04-29T10:48:24.144Z,17.81
2023-04-29T10:50:51.078Z,17.95
2023-04-29T10:53:21.468Z,17.93
2023-04-29T10:56:00.747Z,18.00
2023-04-29T10:58:43.727Z,18.03
2023-04-29T11:01:16.185Z,17.98
2023-04-29T11:04:02.455Z,17.94
2023-04-29T11:06:35.695Z,17.81
2023-04-29T11:09:12.923Z,17.96
2023-04-29T11:11:46.299Z,18.30
2023-04-29T11:14:15.770Z,17.84
2023-04-29T11:16:51.374Z,18.08
2023-04-29T11:19:18.604Z,18.43
2023-04-29T11:21:49.703Z,18.62
2023-04-29T11:24:20.664Z,18.39
2023-04-29T11:26:49.091Z,18.21
2023-04-29T11:29:18.066Z,17.83
2023-04-29T11:31:46.351Z,17.95
2023-04-29T11:34:13.712Z,18.08
2023-04-29T11:36:40.758Z,18.00
2023-04-29T11:39:08.898Z,18.11
2023-04-29T11:41:37.160Z,18.20
2023-04-29T11:44:07.014Z,17.89
2023-04-29T11:46:34.290Z,17.95
2023-04-29T11:49:02.187Z,18.20
2023-04-29T11:51:29.555Z,18.56
2023-04-29T11:53:58.188Z,18.95
2023-04-29T11:56:25.365Z,19.32
2023-04-29T11:58:57.330Z,19.65
2023-04-29T12:01:25.166Z,19.83
2023-04-29T12:03:59.551Z,20.20
2023-04-29T12:06:29.684Z,20.55
2023-04-29T12:08:58.795Z,20.81
2023-04-29T12:11:26.247Z,21.09
2023-04-29T12:13:54.590Z,21.38
2023-04-29T12:16:24.210Z,21.63
2023-04-29T12:18:53.557Z,21.67
2023-04-29T12:21:23.722Z,21.50
2023-04-29T12:23:52.188Z,21.45
2023-04-29T12:26:20.664Z,21.54
2023-04-29T12:28:54.423Z,21.50
2023-04-29T12:31:23.763Z,21.57
2023-04-29T12:33:53.659Z,22.16
2023-04-29T12:36:21.683Z,22.58
2023-04-29T12:38:49.168Z,22.88
2023-04-29T12:41:16.745Z,23.52
2023-04-29T12:43:44.025Z,23.81
2023-04-29T12:46:12.660Z,23.04
2023-04-29T12:48:44.126Z,23.01
2023-04-29T12:51:11.417Z,22.95
2023-04-29T12:53:38.643Z,22.91
2023-04-29T12:56:07.313Z,23.08
2023-04-29T12:58:34.572Z,23.25
2023-04-29T13:01:01.692Z,23.34
2023-04-29T13:03:30.742Z,23.51
2023-04-29T13:05:59.207Z,23.60
2023-04-29T13:08:26.893Z,23.42
2023-04-29T13:10:53.880Z,23.28
2023-04-29T13:13:21.153Z,23.30
2023-04-29T13:15:50.388Z,23.09
2023-04-29T13:18:18.950Z,23.18
2023-04-29T13:20:47.903Z,23.34
2023-04-29T13:23:15.300Z,23.48
2023-04-29T13:25:43.434Z,23.18
2023-04-29T13:28:11.035Z,23.18
2023-04-29T13:30:40.363Z,23.26
2023-04-29T13:33:12.410Z,23.08
2023-04-29T13:35:41.004Z,22.84
2023-04-29T13:38:08.711Z,22.80
2023-04-29T13:40:39.531Z,22.83
2023-04-29T13:43:14.999Z,23.03
2023-04-29T13:45:48.274Z,23.01
2023-04-29T13:51:23.359Z,23.54
2023-04-29T13:54:25.397Z,23.54
2023-04-29T13:57:14.807Z,24.32
2023-04-29T13:59:41.569Z,24.23
2023-04-29T14:04:32.742Z,24.24
2023-04-29T14:07:00.423Z,24.14
2023-04-29T14:09:28.484Z,24.24
2023-04-29T14:11:55.650Z,24.20
2023-04-29T14:14:22.932Z,24.16
2023-04-29T14:16:50.116Z,24.26
2023-04-29T14:19:18.366Z,24.25
2023-04-29T14:21:45.686Z,24.31
2023-04-29T14:24:14.196Z,24.31
2023-04-29T14:26:41.452Z,24.28
2023-04-29T14:29:08.512Z,24.31
2023-04-29T14:31:38.673Z,24.80
2023-04-29T14:34:06.346Z,24.90
2023-04-29T14:36:35.368Z,24.82
2023-04-29T14:39:03.810Z,24.68
2023-04-29T14:41:35.626Z,24.90
2023-04-29T14:44:02.862Z,24.84
2023-04-29T14:46:36.136Z,24.89
2023-04-29T14:49:03.684Z,25.02
2023-04-29T14:51:32.732Z,25.07
2023-04-29T14:53:59.771Z,25.06
2023-04-29T14:56:27.020Z,25.05
2023-04-29T14:58:54.136Z,25.44
2023-04-29T15:01:21.288Z,25.38
2023-04-29T15:03:48.394Z,25.29
2023-04-29T15:06:15.449Z,25.50
2023-04-29T15:08:42.535Z,25.52
2023-04-29T15:11:09.556Z,25.47
2023-04-29T15:13:39.220Z,25.63
2023-04-29T15:16:07.344Z,25.62
2023-04-29T15:18:35.247Z,25.51
2023-04-29T15:21:03.885Z,25.56
2023-04-29T15:23:31.065Z,25.65
2023-04-29T15:25:58.033Z,25.66
2023-04-29T15:28:25.550Z,25.63
2023-04-29T15:30:52.502Z,25.35
2023-04-29T15:33:22.746Z,25.19
2023-04-29T15:35:50.400Z,25.00
2023-04-29T15:38:18.663Z,25.03
2023-04-29T15:40:46.872Z,25.20
2023-04-29T15:43:15.763Z,25.15
2023-04-29T15:45:43.948Z,25.22
2023-04-29T15:48:11.480Z,25.21
2023-04-29T15:50:38.584Z,25.28
2023-04-29T15:53:05.634Z,25.25
2023-04-29T15:55:34.581Z,25.07
2023-04-29T15:58:01.923Z,25.15
2023-04-29T16:00:29.424Z,25.19
2023-04-29T16:02:56.551Z,25.31
2023-04-29T16:05:23.746Z,25.30
2023-04-29T16:07:50.695Z,25.36
2023-04-29T16:10:17.600Z,25.52
2023-04-29T16:12:45.268Z,25.59
2023-04-29T16:15:12.451Z,25.63
2023-04-29T16:17:41.600Z,25.64
2023-04-29T16:20:08.917Z,25.81
2023-04-29T16:22:36.713Z,25.97
2023-04-29T16:25:05.156Z,26.14
2023-04-29T16:27:34.904Z,26.14
2023-04-29T16:30:02.307Z,26.12
2023-04-29T16:32:32.707Z,26.09
2023-04-29T16:35:02.677Z,26.24
2023-04-29T16:37:31.294Z,26.29
2023-04-29T16:40:00.489Z,26.42
2023-04-29T16:42:27.571Z,26.41
2023-04-29T16:44:56.442Z,26.66
2023-04-29T16:47:26.258Z,26.73
2023-04-29T16:49:55.078Z,26.89
2023-04-29T16:52:23.684Z,27.07
2023-04-29T16:54:50.814Z,27.21
2023-04-29T16:57:18.747Z,27.09
2023-04-29T16:59:46.701Z,27.30
2023-04-29T17:02:13.780Z,27.35
2023-04-29T17:04:41.366Z,27.35
2023-04-29T17:07:08.907Z,27.42
2023-04-29T17:09:36.178Z,27.56
2023-04-29T17:12:03.599Z,27.64
2023-04-29T17:14:32.614Z,27.81
2023-04-29T17:16:59.921Z,27.89
2023-04-29T17:19:27.055Z,28.01
2023-04-29T17:21:54.313Z,28.22
2023-04-29T17:24:21.729Z,28.23
2023-04-29T17:26:53.098Z,28.41
2023-04-29T17:29:20.640Z,28.47
2023-04-29T17:31:54.304Z,28.54
2023-04-29T17:34:25.159Z,28.73
2023-04-29T17:36:55.429Z,28.91
2023-04-29T17:39:27.499Z,29.20
2023-04-29T17:41:56.956Z,29.28
2023-04-29T17:44:25.267Z,29.36
2023-04-29T17:46:53.055Z,29.55
2023-04-29T17:49:20.670Z,29.65
2023-04-29T17:51:49.447Z,29.53
2023-04-29T17:54:18.606Z,29.59
2023-04-29T17:56:47.393Z,29.62
2023-04-29T17:59:15.275Z,29.78
2023-04-29T18:01:42.644Z,29.92
2023-04-29T18:04:12.929Z,29.86
2023-04-29T18:06:43.049Z,29.75
2023-04-29T18:09:10.754Z,29.87
2023-04-29T18:11:40.992Z,29.99
2023-04-29T18:14:08.169Z,30.03
2023-04-29T18:16:37.827Z,30.07
2023-04-29T18:19:04.889Z,30.10
2023-04-29T18:21:32.969Z,30.22
2023-04-29T18:24:00.413Z,30.28
2023-04-29T18:26:28.124Z,30.09
2023-04-29T18:28:55.133Z,30.35
2023-04-29T18:31:24.661Z,30.41
2023-04-29T18:33:53.652Z,30.55
2023-04-29T18:36:23.992Z,30.51
2023-04-29T18:38:55.287Z,30.44
2023-04-29T18:41:22.223Z,30.68
2023-04-29T18:43:51.256Z,30.83
2023-04-29T18:46:19.686Z,30.84
2023-04-29T18:48:47.066Z,30.86
2023-04-29T18:51:14.623Z,30.86
2023-04-29T18:53:46.693Z,30.87
2023-04-29T18:56:15.189Z,31.05
2023-04-29T18:58:42.131Z,31.05
2023-04-29T19:01:09.427Z,31.05
2023-04-29T19:03:36.639Z,30.94
2023-04-29T19:06:03.959Z,31.03
2023-04-29T19:08:33.273Z,30.95
2023-04-29T19:11:04.755Z,30.98
2023-04-29T19:13:35.697Z,31.02
2023-04-29T19:16:05.882Z,30.78
2023-04-29T19:18:33.486Z,30.82
2023-04-29T19:21:01.147Z,30.70
2023-04-29T19:23:36.366Z,30.53
2023-04-29T19:26:04.977Z,30.74
2023-04-29T19:28:33.904Z,30.64
2023-04-29T19:31:04.203Z,30.62
2023-04-29T19:33:34.090Z,30.61
2023-04-29T19:36:03.797Z,30.86
2023-04-29T19:38:31.479Z,31.00
2023-04-29T19:41:00.382Z,31.00
2023-04-29T19:43:28.104Z,30.91
2023-04-29T19:45:58.498Z,30.95
2023-04-29T19:48:26.788Z,31.09
2023-04-29T19:50:53.840Z,31.08
2023-04-29T19:53:21.033Z,31.00
2023-04-29T19:55:54.632Z,31.04
2023-04-29T19:58:41.485Z,31.13
2023-04-29T20:01:10.953Z,31.24
2023-04-29T20:03:39.008Z,31.37
2023-04-29T20:06:06.775Z,31.34
2023-04-29T20:08:34.203Z,31.34
2023-04-29T20:11:02.572Z,31.29
2023-04-29T20:13:30.074Z,31.36
2023-04-29T20:15:57.210Z,31.36
2023-04-29T20:18:25.773Z,31.45
2023-04-29T20:20:54.907Z,31.47
2023-04-29T20:23:21.948Z,31.70
2023-04-29T20:25:52.662Z,31.74
2023-04-29T20:28:20.645Z,31.79
2023-04-29T20:30:50.409Z,31.78
2023-04-29T20:33:19.226Z,31.79
2023-04-29T20:35:48.229Z,31.76
2023-04-29T20:38:18.746Z,31.92
2023-04-29T20:40:46.498Z,31.98
2023-04-29T20:43:13.860Z,31.96
2023-04-29T20:45:41.023Z,32.16
2023-04-29T20:48:09.034Z,32.26
2023-04-29T20:50:36.638Z,32.17
2023-04-29T20:53:06.767Z,32.15
2023-04-29T20:55:34.901Z,32.15
2023-04-29T20:58:03.308Z,32.30
2023-04-29T21:00:31.469Z,32.54
2023-04-29T21:02:59.700Z,32.59
2023-04-29T21:05:26.794Z,32.61
2023-04-29T21:07:53.834Z,32.66
2023-04-29T21:10:22.140Z,32.79
2023-04-29T21:12:49.463Z,32.87
2023-04-29T21:15:17.074Z,32.86
2023-04-29T21:17:51.109Z,32.90
2023-04-29T21:20:19.535Z,33.06
2023-04-29T21:22:46.517Z,33.08
2023-04-29T21:25:15.706Z,33.13
2023-04-29T21:27:46.264Z,33.16
2023-04-29T21:30:13.873Z,33.28
2023-04-29T21:32:41.369Z,33.46
2023-04-29T21:35:09.567Z,33.43
2023-04-29T21:37:37.454Z,33.59
2023-04-29T21:40:05.470Z,33.54
2023-04-29T21:42:34.570Z,33.55
2023-04-29T21:45:03.087Z,33.65
2023-04-29T21:47:30.555Z,33.67
2023-04-29T21:49:59.077Z,33.70
2023-04-29T21:52:28.568Z,33.69
2023-04-29T21:54:59.547Z,33.77
2023-04-29T21:57:42.921Z,33.77
2023-04-29T22:00:32.239Z,33.76
2023-04-29T22:03:03.081Z,33.83
2023-04-29T22:05:43.699Z,33.87
2023-04-29T22:08:10.956Z,33.95
2023-04-29T22:10:39.583Z,34.08
2023-04-29T22:13:10.154Z,34.12
2023-04-29T22:15:37.938Z,34.26
2023-04-29T22:18:05.357Z,34.36
2023-04-29T22:20:32.437Z,34.41
2023-04-29T22:23:00.816Z,34.50
2023-04-29T22:25:29.395Z,34.58
2023-04-29T22:27:56.687Z,34.55
2023-04-29T22:30:23.773Z,34.56
2023-04-29T22:32:51.036Z,34.74
2023-04-29T22:35:18.199Z,34.84
2023-04-29T22:37:45.628Z,34.99
2023-04-29T22:40:13.558Z,34.90
2023-04-29T22:42:42.401Z,34.94
2023-04-29T22:45:10.626Z,35.03
2023-04-29T22:47:37.789Z,35.03
2023-04-29T22:50:12.721Z,35.09
2023-04-29T22:52:41.964Z,35.28
2023-04-29T22:55:17.842Z,35.30
2023-04-29T22:57:44.875Z,35.29
2023-04-29T23:00:12.631Z,35.26
2023-04-29T23:02:41.557Z,35.35
2023-04-29T23:05:09.191Z,35.35
2023-04-29T23:07:40.637Z,35.36
2023-04-29T23:10:07.971Z,35.42
2023-04-29T23:12:35.345Z,35.60
2023-04-29T23:15:03.838Z,35.79
2023-04-29T23:17:33.358Z,35.70
2023-04-29T23:20:02.427Z,35.71
2023-04-29T23:22:30.129Z,35.73
2023-04-29T23:24:57.038Z,35.81
2023-04-29T23:27:24.173Z,35.92
2023-04-29T23:29:51.868Z,35.96
2023-04-29T23:32:20.126Z,36.09
2023-04-29T23:34:48.402Z,36.10
2023-04-29T23:37:19.418Z,36.19
2023-04-29T23:39:46.478Z,36.22
2023-04-29T23:42:15.988Z,36.19
2023-04-29T23:44:43.027Z,36.30
2023-04-29T23:47:11.139Z,36.33
2023-04-29T23:49:38.247Z,36.46
2023-04-29T23:52:07.200Z,36.55
2023-04-29T23:54:34.407Z,36.63
2023-04-29T23:57:05.114Z,36.65
2023-04-29T23:59:32.333Z,36.73
